sensor_id;sensor_type;location;lat;lon;timestamp;temperature;humidity
20288;DHT22;10303;51.960;8.372;2023-04-01T00:01:02;13.60;99.90
20288;DHT22;10303;51.960;8.372;2023-04-01T00:03:29;13.60;99.90
20288;DHT22;10303;51.960;8.372;2023-04-01T00:05:57;13.60;99.90
20288;DHT22;10303;51.960;8.372;2023-04-01T00:08:24;13.60;99.90
20288;DHT22;10303;51.960;8.372;2023-04-01T00:10:52;13.60;99.90
20288;DHT22;10303;51.960;8.372;2023-04-01T00:13:19;13.60;99.90
20288;DHT22;10303;51.960;8.372;2023-04-01T00:15:45;13.60;99.90
20288;DHT22;10303;51.960;8.372;2023-04-01T00:18:12;13.80;99.90
20288;DHT22;10303;51.960;8.372;2023-04-01T00:20:42;13.80;99.90
20288;DHT22;10303;51.960;8.372;2023-04-01T00:23:10;13.60;99.90
20288;DHT22;10303;51.960;8.372;2023-04-01T00:25:36;13.70;99.90
20288;DHT22;10303;51.960;8.372;2023-04-01T00:28:02;13.60;99.90
20288;DHT22;10303;51.960;8.372;2023-04-01T00:30:27;13.60;99.90
20288;DHT22;10303;51.960;8.372;2023-04-01T00:32:54;13.60;99.90
20288;DHT22;10303;51.960;8.372;2023-04-01T00:35:20;13.60;99.90
20288;DHT22;10303;51.960;8.372;2023-04-01T00:37:46;13.70;99.90
20288;DHT22;10303;51.960;8.372;2023-04-01T00:40:34;13.70;99.90
20288;DHT22;10303;51.960;8.372;2023-04-01T00:43:11;13.60;99.90
20288;DHT22;10303;51.960;8.372;2023-04-01T00:45:41;13.60;99.90
20288;DHT22;10303;51.960;8.372;2023-04-01T00:48:16;13.60;99.90
20288;DHT22;10303;51.960;8.372;2023-04-01T00:50:50;13.70;99.90
20288;DHT22;10303;51.960;8.372;2023-04-01T00:53:21;13.60;99.90
20288;DHT22;10303;51.960;8.372;2023-04-01T00:55:57;13.60;99.90
20288;DHT22;10303;51.960;8.372;2023-04-01T00:58:29;13.80;99.90
20288;DHT22;10303;51.960;8.372;2023-04-01T01:00:59;13.60;99.90
20288;DHT22;10303;51.960;8.372;2023-04-01T01:03:28;13.60;99.90
20288;DHT22;10303;51.960;8.372;2023-04-01T01:08:52;13.60;99.90
20288;DHT22;10303;51.960;8.372;2023-04-01T01:11:33;13.70;99.90
20288;DHT22;10303;51.960;8.372;2023-04-01T01:14:39;13.70;99.90
20288;DHT22;10303;51.960;8.372;2023-04-01T01:17:27;13.70;99.90
20288;DHT22;10303;51.960;8.372;2023-04-01T01:28:19;13.60;99.90
20288;DHT22;10303;51.960;8.372;2023-04-01T01:36:20;13.60;99.90
20288;DHT22;10303;51.960;8.372;2023-04-01T01:38:47;13.60;99.90
20288;DHT22;10303;51.960;8.372;2023-04-01T01:41:17;13.60;99.90
20288;DHT22;10303;51.960;8.372;2023-04-01T01:43:48;13.60;99.90
20288;DHT22;10303;51.960;8.372;2023-04-01T01:46:37;13.60;99.90
20288;DHT22;10303;51.960;8.372;2023-04-01T01:49:06;13.60;99.90
20288;DHT22;10303;51.960;8.372;2023-04-01T01:51:35;13.60;99.90
20288;DHT22;10303;51.960;8.372;2023-04-01T01:54:03;13.70;99.90
20288;DHT22;10303;51.960;8.372;2023-04-01T01:56:30;13.50;99.90
20288;DHT22;10303;51.960;8.372;2023-04-01T01:59:03;13.50;99.90
20288;DHT22;10303;51.960;8.372;2023-04-01T02:01:38;13.50;99.90
20288;DHT22;10303;51.960;8.372;2023-04-01T02:04:13;13.50;99.90
20288;DHT22;10303;51.960;8.372;2023-04-01T02:06:47;13.50;99.90
20288;DHT22;10303;51.960;8.372;2023-04-01T02:09:19;13.50;99.90
20288;DHT22;10303;51.960;8.372;2023-04-01T02:12:07;13.50;99.90
20288;DHT22;10303;51.960;8.372;2023-04-01T02:14:56;13.50;99.90
20288;DHT22;10303;51.960;8.372;2023-04-01T02:17:29;13.60;99.90
20288;DHT22;10303;51.960;8.372;2023-04-01T02:20:01;13.50;99.90
20288;DHT22;10303;51.960;8.372;2023-04-01T02:22:34;13.40;99.90
20288;DHT22;10303;51.960;8.372;2023-04-01T02:25:06;13.40;99.90
20288;DHT22;10303;51.960;8.372;2023-04-01T02:27:34;13.40;99.90
20288;DHT22;10303;51.960;8.372;2023-04-01T02:30:01;13.40;99.90
20288;DHT22;10303;51.960;8.372;2023-04-01T02:32:31;13.40;99.90
20288;DHT22;10303;51.960;8.372;2023-04-01T02:34:59;13.40;99.90
20288;DHT22;10303;51.960;8.372;2023-04-01T02:37:28;13.40;99.90
20288;DHT22;10303;51.960;8.372;2023-04-01T02:40:00;13.30;99.90
20288;DHT22;10303;51.960;8.372;2023-04-01T02:42:26;13.50;99.90
20288;DHT22;10303;51.960;8.372;2023-04-01T02:44:52;13.30;99.90
20288;DHT22;10303;51.960;8.372;2023-04-01T02:47:18;13.30;99.90
20288;DHT22;10303;51.960;8.372;2023-04-01T02:49:44;13.30;99.90
20288;DHT22;10303;51.960;8.372;2023-04-01T02:52:10;13.40;99.90
20288;DHT22;10303;51.960;8.372;2023-04-01T02:54:36;13.30;99.90
20288;DHT22;10303;51.960;8.372;2023-04-01T02:57:02;13.30;99.90
20288;DHT22;10303;51.960;8.372;2023-04-01T02:59:28;13.30;99.90
20288;DHT22;10303;51.960;8.372;2023-04-01T03:01:54;13.30;99.90
20288;DHT22;10303;51.960;8.372;2023-04-01T03:04:20;13.40;99.90
20288;DHT22;10303;51.960;8.372;2023-04-01T03:06:46;13.30;99.90
20288;DHT22;10303;51.960;8.372;2023-04-01T03:09:12;13.40;99.90
20288;DHT22;10303;51.960;8.372;2023-04-01T03:11:40;13.30;99.90
20288;DHT22;10303;51.960;8.372;2023-04-01T03:14:06;13.30;99.90
20288;DHT22;10303;51.960;8.372;2023-04-01T03:16:32;13.30;99.90
20288;DHT22;10303;51.960;8.372;2023-04-01T03:18:58;13.30;99.90
20288;DHT22;10303;51.960;8.372;2023-04-01T03:21:27;13.30;99.90
20288;DHT22;10303;51.960;8.372;2023-04-01T03:23:53;13.30;99.90
20288;DHT22;10303;51.960;8.372;2023-04-01T03:26:19;13.30;99.90
20288;DHT22;10303;51.960;8.372;2023-04-01T03:28:47;13.30;99.90
20288;DHT22;10303;51.960;8.372;2023-04-01T03:31:13;13.40;99.90
20288;DHT22;10303;51.960;8.372;2023-04-01T03:33:47;13.30;99.90
20288;DHT22;10303;51.960;8.372;2023-04-01T03:36:12;13.30;99.90
20288;DHT22;10303;51.960;8.372;2023-04-01T03:38:40;13.50;99.90
20288;DHT22;10303;51.960;8.372;2023-04-01T03:41:07;13.30;99.90
20288;DHT22;10303;51.960;8.372;2023-04-01T03:43:36;13.40;99.90
20288;DHT22;10303;51.960;8.372;2023-04-01T03:46:03;13.30;99.90
20288;DHT22;10303;51.960;8.372;2023-04-01T03:48:30;13.30;99.90
20288;DHT22;10303;51.960;8.372;2023-04-01T03:50:56;13.30;99.90
20288;DHT22;10303;51.960;8.372;2023-04-01T03:53:22;13.30;99.90
20288;DHT22;10303;51.960;8.372;2023-04-01T03:55:49;13.40;99.90
20288;DHT22;10303;51.960;8.372;2023-04-01T03:58:17;13.30;99.90
20288;DHT22;10303;51.960;8.372;2023-04-01T04:00:43;13.30;99.90
20288;DHT22;10303;51.960;8.372;2023-04-01T04:03:10;13.40;99.90
20288;DHT22;10303;51.960;8.372;2023-04-01T04:05:36;13.30;99.90
20288;DHT22;10303;51.960;8.372;2023-04-01T04:08:02;13.30;99.90
20288;DHT22;10303;51.960;8.372;2023-04-01T04:10:28;13.30;99.90
20288;DHT22;10303;51.960;8.372;2023-04-01T04:12:54;13.30;99.90
20288;DHT22;10303;51.960;8.372;2023-04-01T04:15:23;13.40;99.90
20288;DHT22;10303;51.960;8.372;2023-04-01T04:17:48;13.30;99.90
20288;DHT22;10303;51.960;8.372;2023-04-01T04:20:15;13.30;99.90
20288;DHT22;10303;51.960;8.372;2023-04-01T04:22:41;13.30;99.90
20288;DHT22;10303;51.960;8.372;2023-04-01T04:25:08;13.30;99.90
20288;DHT22;10303;51.960;8.372;2023-04-01T04:27:36;13.30;99.90
20288;DHT22;10303;51.960;8.372;2023-04-01T04:30:08;13.30;99.90
20288;DHT22;10303;51.960;8.372;2023-04-01T04:32:35;13.30;99.90
20288;DHT22;10303;51.960;8.372;2023-04-01T04:35:02;13.30;99.90
20288;DHT22;10303;51.960;8.372;2023-04-01T04:37:29;13.30;99.90
20288;DHT22;10303;51.960;8.372;2023-04-01T04:39:54;13.30;99.90
20288;DHT22;10303;51.960;8.372;2023-04-01T04:42:20;13.20;99.90
20288;DHT22;10303;51.960;8.372;2023-04-01T04:44:47;13.30;99.90
20288;DHT22;10303;51.960;8.372;2023-04-01T04:47:17;13.30;99.90
20288;DHT22;10303;51.960;8.372;2023-04-01T04:49:42;13.20;99.90
20288;DHT22;10303;51.960;8.372;2023-04-01T04:52:09;13.20;99.90
20288;DHT22;10303;51.960;8.372;2023-04-01T04:54:35;13.30;99.90
20288;DHT22;10303;51.960;8.372;2023-04-01T04:57:03;13.20;99.90
20288;DHT22;10303;51.960;8.372;2023-04-01T04:59:33;13.30;99.90
20288;DHT22;10303;51.960;8.372;2023-04-01T05:02:07;13.20;99.90
20288;DHT22;10303;51.960;8.372;2023-04-01T05:04:36;13.20;99.90
20288;DHT22;10303;51.960;8.372;2023-04-01T05:07:04;13.20;99.90
20288;DHT22;10303;51.960;8.372;2023-04-01T05:09:31;13.20;99.90
20288;DHT22;10303;51.960;8.372;2023-04-01T05:11:58;13.20;99.90
20288;DHT22;10303;51.960;8.372;2023-04-01T05:14:25;13.20;99.90
20288;DHT22;10303;51.960;8.372;2023-04-01T05:16:58;13.20;99.90
20288;DHT22;10303;51.960;8.372;2023-04-01T05:19:24;13.10;99.90
20288;DHT22;10303;51.960;8.372;2023-04-01T05:21:50;13.10;99.90
20288;DHT22;10303;51.960;8.372;2023-04-01T05:24:16;13.10;99.90
20288;DHT22;10303;51.960;8.372;2023-04-01T05:26:42;13.20;99.90
20288;DHT22;10303;51.960;8.372;2023-04-01T05:29:08;13.10;99.90
20288;DHT22;10303;51.960;8.372;2023-04-01T05:31:34;13.10;99.90
20288;DHT22;10303;51.960;8.372;2023-04-01T05:34:01;13.10;99.90
20288;DHT22;10303;51.960;8.372;2023-04-01T05:36:27;13.10;99.90
20288;DHT22;10303;51.960;8.372;2023-04-01T05:38:57;13.10;99.90
20288;DHT22;10303;51.960;8.372;2023-04-01T05:41:25;13.10;99.90
20288;DHT22;10303;51.960;8.372;2023-04-01T05:43:51;13.20;99.90
20288;DHT22;10303;51.960;8.372;2023-04-01T05:46:40;13.20;99.90
20288;DHT22;10303;51.960;8.372;2023-04-01T05:49:17;13.30;99.90
20288;DHT22;10303;51.960;8.372;2023-04-01T05:51:43;13.10;99.90
20288;DHT22;10303;51.960;8.372;2023-04-01T05:54:09;13.20;99.90
20288;DHT22;10303;51.960;8.372;2023-04-01T05:56:36;13.10;99.90
20288;DHT22;10303;51.960;8.372;2023-04-01T05:59:03;13.20;99.90
20288;DHT22;10303;51.960;8.372;2023-04-01T06:01:29;13.10;99.90
20288;DHT22;10303;51.960;8.372;2023-04-01T06:03:56;13.10;99.90
20288;DHT22;10303;51.960;8.372;2023-04-01T06:06:27;13.20;99.90
20288;DHT22;10303;51.960;8.372;2023-04-01T06:09:21;13.20;99.90
20288;DHT22;10303;51.960;8.372;2023-04-01T06:14:46;13.20;99.90
20288;DHT22;10303;51.960;8.372;2023-04-01T06:17:30;13.30;99.90
20288;DHT22;10303;51.960;8.372;2023-04-01T06:20:42;13.20;99.90
20288;DHT22;10303;51.960;8.372;2023-04-01T06:38:07;13.30;99.90
20288;DHT22;10303;51.960;8.372;2023-04-01T06:47:27;13.20;99.90
20288;DHT22;10303;51.960;8.372;2023-04-01T06:57:31;13.20;99.90
20288;DHT22;10303;51.960;8.372;2023-04-01T07:00:04;13.20;99.90
20288;DHT22;10303;51.960;8.372;2023-04-01T07:02:43;13.20;99.90
20288;DHT22;10303;51.960;8.372;2023-04-01T07:05:20;13.20;99.90
20288;DHT22;10303;51.960;8.372;2023-04-01T07:07:50;13.20;99.90
20288;DHT22;10303;51.960;8.372;2023-04-01T07:16:41;13.20;99.90
20288;DHT22;10303;51.960;8.372;2023-04-01T07:22:38;13.20;99.90
20288;DHT22;10303;51.960;8.372;2023-04-01T07:25:30;13.20;99.90
20288;DHT22;10303;51.960;8.372;2023-04-01T07:28:31;13.30;99.90
20288;DHT22;10303;51.960;8.372;2023-04-01T07:34:28;13.20;99.90
20288;DHT22;10303;51.960;8.372;2023-04-01T07:37:43;13.30;99.90
20288;DHT22;10303;51.960;8.372;2023-04-01T07:43:46;13.30;99.90
20288;DHT22;10303;51.960;8.372;2023-04-01T07:46:41;13.30;99.90
20288;DHT22;10303;51.960;8.372;2023-04-01T07:49:29;13.40;99.90
20288;DHT22;10303;51.960;8.372;2023-04-01T07:52:27;13.30;99.90
20288;DHT22;10303;51.960;8.372;2023-04-01T08:07:40;13.50;99.90
20288;DHT22;10303;51.960;8.372;2023-04-01T08:13:53;13.60;99.90
20288;DHT22;10303;51.960;8.372;2023-04-01T08:22:36;13.70;99.90
20288;DHT22;10303;51.960;8.372;2023-04-01T08:25:21;13.80;99.90
20288;DHT22;10303;51.960;8.372;2023-04-01T08:27:59;13.80;99.90
20288;DHT22;10303;51.960;8.372;2023-04-01T08:30:47;13.80;99.90
20288;DHT22;10303;51.960;8.372;2023-04-01T08:33:29;13.90;99.90
20288;DHT22;10303;51.960;8.372;2023-04-01T08:36:20;13.90;99.90
20288;DHT22;10303;51.960;8.372;2023-04-01T08:39:16;14.00;99.90
20288;DHT22;10303;51.960;8.372;2023-04-01T08:51:03;14.20;99.90
20288;DHT22;10303;51.960;8.372;2023-04-01T08:53:47;14.30;99.90
20288;DHT22;10303;51.960;8.372;2023-04-01T09:03:02;14.50;99.90
20288;DHT22;10303;51.960;8.372;2023-04-01T09:06:06;14.60;99.90
20288;DHT22;10303;51.960;8.372;2023-04-01T09:20:46;14.80;99.90
20288;DHT22;10303;51.960;8.372;2023-04-01T09:26:27;14.90;99.90
20288;DHT22;10303;51.960;8.372;2023-04-01T09:29:22;14.90;99.90
20288;DHT22;10303;51.960;8.372;2023-04-01T09:41:16;15.10;99.90
20288;DHT22;10303;51.960;8.372;2023-04-01T09:44:22;15.20;99.90
20288;DHT22;10303;51.960;8.372;2023-04-01T10:16:54;15.50;99.90
20288;DHT22;10303;51.960;8.372;2023-04-01T10:49:48;15.40;99.90
20288;DHT22;10303;51.960;8.372;2023-04-01T10:53:04;15.40;99.90
20288;DHT22;10303;51.960;8.372;2023-04-01T11:07:07;15.50;99.90
20288;DHT22;10303;51.960;8.372;2023-04-01T11:09:50;15.50;99.90
20288;DHT22;10303;51.960;8.372;2023-04-01T11:25:23;15.60;99.90
20288;DHT22;10303;51.960;8.372;2023-04-01T11:34:41;15.80;99.90
20288;DHT22;10303;51.960;8.372;2023-04-01T11:44:24;15.90;99.90
20288;DHT22;10303;51.960;8.372;2023-04-01T11:53:47;16.10;99.90
20288;DHT22;10303;51.960;8.372;2023-04-01T11:56:48;16.10;99.90
20288;DHT22;10303;51.960;8.372;2023-04-01T11:59:46;16.10;99.90
20288;DHT22;10303;51.960;8.372;2023-04-01T12:05:50;16.10;99.90
20288;DHT22;10303;51.960;8.372;2023-04-01T12:11:32;16.20;99.90
20288;DHT22;10303;51.960;8.372;2023-04-01T12:14:31;16.10;99.90
20288;DHT22;10303;51.960;8.372;2023-04-01T12:17:34;16.10;99.90
20288;DHT22;10303;51.960;8.372;2023-04-01T12:26:10;16.00;99.90
20288;DHT22;10303;51.960;8.372;2023-04-01T12:37:06;16.00;99.90
20288;DHT22;10303;51.960;8.372;2023-04-01T12:48:34;16.00;99.90
20288;DHT22;10303;51.960;8.372;2023-04-01T12:51:41;16.00;99.90
20288;DHT22;10303;51.960;8.372;2023-04-01T13:06:16;16.00;99.90
20288;DHT22;10303;51.960;8.372;2023-04-01T13:14:50;16.10;99.90
20288;DHT22;10303;51.960;8.372;2023-04-01T13:21:03;16.20;99.90
20288;DHT22;10303;51.960;8.372;2023-04-01T13:24:22;16.10;99.90
20288;DHT22;10303;51.960;8.372;2023-04-01T13:27:08;16.10;99.90
20288;DHT22;10303;51.960;8.372;2023-04-01T13:38:52;16.20;99.90
20288;DHT22;10303;51.960;8.372;2023-04-01T13:44:41;16.20;99.90
20288;DHT22;10303;51.960;8.372;2023-04-01T13:47:24;16.30;99.90
20288;DHT22;10303;51.960;8.372;2023-04-01T13:50:08;16.30;99.90
20288;DHT22;10303;51.960;8.372;2023-04-01T13:56:16;16.30;99.90
20288;DHT22;10303;51.960;8.372;2023-04-01T13:59:25;16.40;99.90
20288;DHT22;10303;51.960;8.372;2023-04-01T14:02:45;16.40;99.90
20288;DHT22;10303;51.960;8.372;2023-04-01T14:05:55;16.50;99.90
20288;DHT22;10303;51.960;8.372;2023-04-01T14:11:45;16.50;99.90
20288;DHT22;10303;51.960;8.372;2023-04-01T14:28:45;16.60;99.90
20288;DHT22;10303;51.960;8.372;2023-04-01T14:32:02;16.60;99.90
20288;DHT22;10303;51.960;8.372;2023-04-01T14:41:04;16.70;99.90
20288;DHT22;10303;51.960;8.372;2023-04-01T14:46:53;16.70;99.90
20288;DHT22;10303;51.960;8.372;2023-04-01T14:49:50;16.70;99.90
20288;DHT22;10303;51.960;8.372;2023-04-01T14:52:28;16.70;99.90
20288;DHT22;10303;51.960;8.372;2023-04-01T14:55:00;16.70;99.90
20288;DHT22;10303;51.960;8.372;2023-04-01T14:57:30;16.70;99.90
20288;DHT22;10303;51.960;8.372;2023-04-01T15:06:25;16.70;99.90
20288;DHT22;10303;51.960;8.372;2023-04-01T15:12:01;16.80;99.90
20288;DHT22;10303;51.960;8.372;2023-04-01T15:18:13;16.80;99.90
20288;DHT22;10303;51.960;8.372;2023-04-01T15:38:47;16.80;99.90
20288;DHT22;10303;51.960;8.372;2023-04-01T15:41:39;16.70;99.90
20288;DHT22;10303;51.960;8.372;2023-04-01T15:50:28;16.80;99.90
20288;DHT22;10303;51.960;8.372;2023-04-01T15:56:23;16.80;99.90
20288;DHT22;10303;51.960;8.372;2023-04-01T15:59:13;16.80;99.90
20288;DHT22;10303;51.960;8.372;2023-04-01T16:02:18;16.80;99.90
20288;DHT22;10303;51.960;8.372;2023-04-01T16:08:02;16.80;99.90
20288;DHT22;10303;51.960;8.372;2023-04-01T16:14:18;16.80;99.90
20288;DHT22;10303;51.960;8.372;2023-04-01T16:17:22;16.80;99.90
20288;DHT22;10303;51.960;8.372;2023-04-01T16:32:06;16.80;99.90
20288;DHT22;10303;51.960;8.372;2023-04-01T16:34:38;16.70;99.90
20288;DHT22;10303;51.960;8.372;2023-04-01T16:37:45;16.70;99.90
20288;DHT22;10303;51.960;8.372;2023-04-01T16:45:46;16.70;99.90
20288;DHT22;10303;51.960;8.372;2023-04-01T16:49:04;16.60;99.90
20288;DHT22;10303;51.960;8.372;2023-04-01T16:57:02;16.50;99.90
20288;DHT22;10303;51.960;8.372;2023-04-01T16:59:37;16.40;99.90
20288;DHT22;10303;51.960;8.372;2023-04-01T17:02:14;16.40;99.90
20288;DHT22;10303;51.960;8.372;2023-04-01T17:10:50;16.20;99.90
20288;DHT22;10303;51.960;8.372;2023-04-01T17:13:29;16.20;99.90
20288;DHT22;10303;51.960;8.372;2023-04-01T17:25:34;15.90;99.90
20288;DHT22;10303;51.960;8.372;2023-04-01T17:28:49;15.90;99.90
20288;DHT22;10303;51.960;8.372;2023-04-01T17:31:22;15.80;99.90
20288;DHT22;10303;51.960;8.372;2023-04-01T17:34:56;15.80;99.90
20288;DHT22;10303;51.960;8.372;2023-04-01T17:40:43;15.70;99.90
20288;DHT22;10303;51.960;8.372;2023-04-01T17:49:33;15.50;99.90
20288;DHT22;10303;51.960;8.372;2023-04-01T17:52:28;15.50;99.90
20288;DHT22;10303;51.960;8.372;2023-04-01T18:07:42;15.30;99.90
20288;DHT22;10303;51.960;8.372;2023-04-01T18:10:38;15.20;99.90
20288;DHT22;10303;51.960;8.372;2023-04-01T18:13:39;15.10;99.90
20288;DHT22;10303;51.960;8.372;2023-04-01T18:19:18;14.90;99.90
20288;DHT22;10303;51.960;8.372;2023-04-01T18:31:20;14.60;99.90
20288;DHT22;10303;51.960;8.372;2023-04-01T18:37:11;14.40;99.90
20288;DHT22;10303;51.960;8.372;2023-04-01T18:39:47;14.40;99.90
20288;DHT22;10303;51.960;8.372;2023-04-01T18:42:41;14.30;99.90
20288;DHT22;10303;51.960;8.372;2023-04-01T18:48:42;14.20;99.90
20288;DHT22;10303;51.960;8.372;2023-04-01T18:51:50;14.10;99.90
20288;DHT22;10303;51.960;8.372;2023-04-01T18:57:50;14.00;99.90
20288;DHT22;10303;51.960;8.372;2023-04-01T19:00:26;14.00;99.90
20288;DHT22;10303;51.960;8.372;2023-04-01T19:03:06;13.90;99.90
20288;DHT22;10303;51.960;8.372;2023-04-01T19:05:39;13.90;99.90
20288;DHT22;10303;51.960;8.372;2023-04-01T19:11:11;13.80;99.90
20288;DHT22;10303;51.960;8.372;2023-04-01T19:13:54;13.70;99.90
20288;DHT22;10303;51.960;8.372;2023-04-01T19:16:46;13.70;99.90
20288;DHT22;10303;51.960;8.372;2023-04-01T19:22:49;13.60;99.90
20288;DHT22;10303;51.960;8.372;2023-04-01T19:30:57;13.50;99.90
20288;DHT22;10303;51.960;8.372;2023-04-01T19:33:35;13.50;99.90
20288;DHT22;10303;51.960;8.372;2023-04-01T19:39:37;13.40;99.90
20288;DHT22;10303;51.960;8.372;2023-04-01T19:51:22;13.10;99.90
20288;DHT22;10303;51.960;8.372;2023-04-01T19:56:51;13.00;99.90
20288;DHT22;10303;51.960;8.372;2023-04-01T19:59:29;13.00;99.90
20288;DHT22;10303;51.960;8.372;2023-04-01T20:04:48;12.90;99.90
20288;DHT22;10303;51.960;8.372;2023-04-01T20:16:03;12.70;99.90
20288;DHT22;10303;51.960;8.372;2023-04-01T20:24:05;12.50;99.90
20288;DHT22;10303;51.960;8.372;2023-04-01T20:27:05;12.50;99.90
20288;DHT22;10303;51.960;8.372;2023-04-01T20:33:22;12.40;99.90
20288;DHT22;10303;51.960;8.372;2023-04-01T20:41:45;12.30;99.90
20288;DHT22;10303;51.960;8.372;2023-04-01T20:50:59;12.10;99.90
20288;DHT22;10303;51.960;8.372;2023-04-01T20:53:43;12.10;99.90
20288;DHT22;10303;51.960;8.372;2023-04-01T21:09:15;11.80;99.90
20288;DHT22;10303;51.960;8.372;2023-04-01T21:14:59;11.70;99.90
20288;DHT22;10303;51.960;8.372;2023-04-01T21:18:15;11.70;99.90
20288;DHT22;10303;51.960;8.372;2023-04-01T21:21:44;11.80;99.90
20288;DHT22;10303;51.960;8.372;2023-04-01T21:27:01;11.70;99.90
20288;DHT22;10303;51.960;8.372;2023-04-01T21:29:55;11.60;99.90
20288;DHT22;10303;51.960;8.372;2023-04-01T21:32:56;11.60;99.90
20288;DHT22;10303;51.960;8.372;2023-04-01T21:35:37;11.60;99.90
20288;DHT22;10303;51.960;8.372;2023-04-01T21:44:20;11.40;99.90
20288;DHT22;10303;51.960;8.372;2023-04-01T22:04:32;11.20;99.90
20288;DHT22;10303;51.960;8.372;2023-04-01T22:10:20;11.20;99.90
20288;DHT22;10303;51.960;8.372;2023-04-01T22:13:03;11.10;99.90
20288;DHT22;10303;51.960;8.372;2023-04-01T22:22:02;11.10;99.90
20288;DHT22;10303;51.960;8.372;2023-04-01T22:31:21;10.90;99.90
20288;DHT22;10303;51.960;8.372;2023-04-01T22:33:30;10.90;99.90
20288;DHT22;10303;51.960;8.372;2023-04-01T22:36:40;10.80;99.90
20288;DHT22;10303;51.960;8.372;2023-04-01T22:54:11;10.60;99.90
20288;DHT22;10303;51.960;8.372;2023-04-01T22:56:56;10.60;99.90
20288;DHT22;10303;51.960;8.372;2023-04-01T22:59:47;10.50;99.90
20288;DHT22;10303;51.960;8.372;2023-04-01T23:02:29;10.50;99.90
20288;DHT22;10303;51.960;8.372;2023-04-01T23:05:01;10.40;99.90
20288;DHT22;10303;51.960;8.372;2023-04-01T23:10:06;10.40;99.90
20288;DHT22;10303;51.960;8.372;2023-04-01T23:12:40;10.30;99.90
20288;DHT22;10303;51.960;8.372;2023-04-01T23:15:12;10.50;99.90
20288;DHT22;10303;51.960;8.372;2023-04-01T23:18:02;10.30;99.90
20288;DHT22;10303;51.960;8.372;2023-04-01T23:20:32;10.20;99.90
20288;DHT22;10303;51.960;8.372;2023-04-01T23:23:19;10.30;99.90
20288;DHT22;10303;51.960;8.372;2023-04-01T23:26:25;10.20;99.90
20288;DHT22;10303;51.960;8.372;2023-04-01T23:28:55;10.20;99.90
20288;DHT22;10303;51.960;8.372;2023-04-01T23:31:41;10.30;99.90
20288;DHT22;10303;51.960;8.372;2023-04-01T23:36:50;10.20;99.90
20288;DHT22;10303;51.960;8.372;2023-04-01T23:39:40;10.20;99.90
20288;DHT22;10303;51.960;8.372;2023-04-01T23:42:24;10.20;99.90
20288;DHT22;10303;51.960;8.372;2023-04-01T23:44:56;10.20;99.90
20288;DHT22;10303;51.960;8.372;2023-04-01T23:47:29;10.10;99.90
20288;DHT22;10303;51.960;8.372;2023-04-01T23:50:00;10.30;99.90
20288;DHT22;10303;51.960;8.372;2023-04-01T23:52:40;10.10;99.90
20288;DHT22;10303;51.960;8.372;2023-04-01T23:55:16;10.10;99.90
20288;DHT22;10303;51.960;8.372;2023-04-01T23:58:10;10.00;99.90
